Observation data for Dimmitt on 02/22/2019      Previous  Date  Next       Current Mesonet Observations  Soil Data  Daily Summary Page  Observations in Plain Language
KDMS 220600Z 09010KT M01/M05 A2988 RMK A01 T10061051  RH  071%=      5-min Rain = 0
KDMS 220605Z 09010KT M01/M05 A2988 RMK A01 T10061051  RH  072%=      5-min Rain = 0
KDMS 220610Z 09010KT M01/M05 A2988 RMK A01 T10061051  RH  072%=      5-min Rain = 0
KDMS 220615Z 09009KT M01/M05 A2988 RMK A01 T10051050  RH  072%=      5-min Rain = 0
KDMS 220620Z 08008KT M00/M05 A2988 RMK A01 T10041050  RH  071%=      5-min Rain = 0
KDMS 220625Z 08008KT M00/M05 A2988 RMK A01 T10041050  RH  071%=      5-min Rain = 0
KDMS 220630Z 08007KT M01/M05 A2988 RMK A01 T10051051  RH  071%=      5-min Rain = 0
KDMS 220635Z 08007KT M01/M05 A2989 RMK A01 T10061052  RH  072%=      5-min Rain = 0
KDMS 220640Z 07006KT M01/M05 A2989 RMK A01 T10061051  RH  072%=      5-min Rain = 0
KDMS 220645Z 06007KT M01/M05 A2989 RMK A01 T10071051  RH  072%=      5-min Rain = 0
KDMS 220650Z 07007KT M01/M05 A2989 RMK A01 T10091052  RH  073%=      5-min Rain = 0
KDMS 220655Z 07007KT M01/M05 A2989 RMK A01 T10111052  RH  074%=      5-min Rain = 0
KDMS 220700Z 07006KT M01/M05 A2989 RMK A01 T10111051  RH  074%=      5-min Rain = 0
KDMS 220705Z 06007KT M01/M05 A2989 RMK A01 T10141053  RH  075%=      5-min Rain = 0
KDMS 220710Z 05007KT M02/M06 A2989 RMK A01 T10201056  RH  076%=      5-min Rain = 0
KDMS 220715Z 06007KT M02/M06 A2989 RMK A01 T10231056  RH  078%=      5-min Rain = 0
KDMS 220720Z 07007KT M03/M06 A2989 RMK A01 T10251056  RH  079%=      5-min Rain = 0
KDMS 220725Z 07008KT M02/M06 A2989 RMK A01 T10241055  RH  079%=      5-min Rain = 0
KDMS 220730Z 07009KT M03/M06 A2988 RMK A01 T10251056  RH  079%=      5-min Rain = 0
KDMS 220735Z 07009KT M03/M06 A2988 RMK A01 T10271057  RH  080%=      5-min Rain = 0
KDMS 220740Z 07008KT M03/M06 A2989 RMK A01 T10271056  RH  081%=      5-min Rain = 0
KDMS 220745Z 07008KT M03/M05 A2989 RMK A01 T10261054  RH  081%=      5-min Rain = 0
KDMS 220750Z 07006KT M02/M05 A299 RMK A01 T10231051  RH  081%=      5-min Rain = 0
KDMS 220755Z 06005KT M02/M05 A2991 RMK A01 T10191049  RH  080%=      5-min Rain = 0
KDMS 220800Z 06005KT M02/M05 A2991 RMK A01 T10201050  RH  080%=      5-min Rain = 0
KDMS 220805Z 07007KT M02/M05 A299 RMK A01 T10211051  RH  081%=      5-min Rain = 0
KDMS 220810Z 06008KT M02/M05 A299 RMK A01 T10221050  RH  081%=      5-min Rain = 0
KDMS 220815Z 05008KT M02/M05 A2989 RMK A01 T10241051  RH  082%=      5-min Rain = 0
KDMS 220820Z 05005KT M03/M05 A299 RMK A01 T10261052  RH  083%=      5-min Rain = 0
KDMS 220825Z 06007KT M03/M05 A2989 RMK A01 T10281052  RH  083%=      5-min Rain = 0
KDMS 220830Z 05006KT M03/M05 A299 RMK A01 T10281052  RH  084%=      5-min Rain = 0
KDMS 220835Z 05006KT M03/M05 A299 RMK A01 T10291051  RH  085%=      5-min Rain = 0
KDMS 220840Z 05007KT M03/M05 A299 RMK A01 T10291050  RH  086%=      5-min Rain = 0
KDMS 220845Z 06007KT M03/M05 A299 RMK A01 T10261048  RH  085%=      5-min Rain = 0
KDMS 220850Z 05006KT M03/M05 A299 RMK A01 T10291052  RH  084%=      5-min Rain = 0
KDMS 220855Z 06008KT M03/M06 A299 RMK A01 T10341055  RH  086%=      5-min Rain = 0
KDMS 220900Z 06008KT M03/M05 A2989 RMK A01 T10321051  RH  087%=      5-min Rain = 0
KDMS 220905Z 07007KT M03/M05 A299 RMK A01 T10291048  RH  087%=      5-min Rain = 0
KDMS 220910Z 07007KT M03/M05 A299 RMK A01 T10251045  RH  087%=      5-min Rain = 0
KDMS 220915Z 07007KT M02/M04 A299 RMK A01 T10241044  RH  086%=      5-min Rain = 0
KDMS 220920Z 07007KT M02/M04 A299 RMK A01 T10231044  RH  086%=      5-min Rain = 0
KDMS 220925Z 08006KT M02/M04 A299 RMK A01 T10231044  RH  086%=      5-min Rain = 0
KDMS 220930Z 08006KT M02/M04 A299 RMK A01 T10231044  RH  086%=      5-min Rain = 0
KDMS 220935Z 09007KT M02/M05 A2989 RMK A01 T10241045  RH  086%=      5-min Rain = 0
KDMS 220940Z 09007KT M02/M04 A2989 RMK A01 T10241043  RH  087%=      5-min Rain = 0
KDMS 220945Z 09007KT M02/M04 A2989 RMK A01 T10231042  RH  087%=      5-min Rain = 0
KDMS 220950Z 09008KT M02/M04 A2989 RMK A01 T10221040  RH  088%=      5-min Rain = 0
KDMS 220955Z 09008KT M02/M04 A2988 RMK A01 T10211040  RH  088%=      5-min Rain = 0
KDMS 221000Z 09008KT M02/M04 A2988 RMK A01 T10221040  RH  088%=      5-min Rain = 0
KDMS 221005Z 09008KT M03/M04 A2988 RMK A01 T10251042  RH  089%=      5-min Rain = 0
KDMS 221010Z 09008KT M03/M04 A2988 RMK A01 T10261042  RH  090%=      5-min Rain = 0
KDMS 221015Z 08008KT M03/M04 A2988 RMK A01 T10281042  RH  090%=      5-min Rain = 0
KDMS 221020Z 08008KT M03/M04 A2988 RMK A01 T10301044  RH  090%=      5-min Rain = 0
KDMS 221025Z 08008KT M03/M05 A2988 RMK A01 T10321045  RH  091%=      5-min Rain = 0
KDMS 221030Z 09008KT M03/M05 A2988 RMK A01 T10331046  RH  092%=      5-min Rain = 0
KDMS 221035Z 09008KT M04/M05 A2988 RMK A01 T10351046  RH  092%=      5-min Rain = 0
KDMS 221040Z 09007KT M04/M05 A2988 RMK A01 T10361046  RH  093%=      5-min Rain = 0
KDMS 221045Z 10007KT M04/M05 A2987 RMK A01 T10361045  RH  093%=      5-min Rain = 0
KDMS 221050Z 10007KT M03/M04 A2987 RMK A01 T10341043  RH  094%=      5-min Rain = 0
KDMS 221055Z 10007KT M03/M04 A2987 RMK A01 T10301039  RH  094%=      5-min Rain = 0
KDMS 221100Z 10008KT M03/M03 A2987 RMK A01 T10251034  RH  094%=      5-min Rain = 0
KDMS 221105Z 11010KT M02/M03 A2987 RMK A01 T10191028  RH  094%=      5-min Rain = 0
KDMS 221110Z 11010KT M02/M02 A2987 RMK A01 T10151023  RH  095%=      5-min Rain = 0
KDMS 221115Z 11010KT M01/M02 A2987 RMK A01 T10131021  RH  094%=      5-min Rain = 0
KDMS 221120Z 11010KT M01/M02 A2987 RMK A01 T10131022  RH  094%=      5-min Rain = 0
KDMS 221125Z 12010KT M01/M02 A2987 RMK A01 T10141022  RH  095%=      5-min Rain = 0
KDMS 221130Z 12010KT M01/M02 A2987 RMK A01 T10141022  RH  095%=      5-min Rain = 0
KDMS 221135Z 11009KT M02/M02 A2987 RMK A01 T10151022  RH  095%=      5-min Rain = 0
KDMS 221140Z 11009KT M02/M02 A2987 RMK A01 T10151023  RH  096%=      5-min Rain = 0
KDMS 221145Z 11008KT M02/M02 A2987 RMK A01 T10161022  RH  097%=      5-min Rain = 0
KDMS 221150Z 11009KT M02/M02 A2987 RMK A01 T10161021  RH  097%=      5-min Rain = 0
KDMS 221155Z 11009KT M02/M02 A2987 RMK A01 T10151020  RH  098%=      5-min Rain = 0
KDMS 221200Z 11009KT M02/M02 A2987 RMK A01 T10151019  RH  098%=      5-min Rain = 0
KDMS 221205Z 11010KT M02/M02 A2987 RMK A01 T10151018  RH  098%=      5-min Rain = 0
KDMS 221210Z 11009KT M02/M02 A2987 RMK A01 T10151018  RH  099%=      5-min Rain = 0
KDMS 221215Z 11009KT M01/M02 A2988 RMK A01 T10141017  RH  099%=      5-min Rain = 0
KDMS 221220Z 11010KT M01/M02 A2988 RMK A01 T10141016  RH  099%=      5-min Rain = 0
KDMS 221225Z 11010KT M01/M02 A2988 RMK A01 T10131015  RH  099%=      5-min Rain = 0
KDMS 221230Z 11009KT M01/M01 A2988 RMK A01 T10121014  RH  100%=      5-min Rain = 0
KDMS 221235Z 11010KT M01/M01 A2988 RMK A01 T10111013  RH  100%=      5-min Rain = 0
KDMS 221240Z 11010KT M01/M01 A2988 RMK A01 T10101012  RH  100%=      5-min Rain = 0
KDMS 221245Z 11009KT M01/M01 A2988 RMK A01 T10101011  RH  100%=      5-min Rain = 0
KDMS 221250Z 11009KT M01/M01 A2988 RMK A01 T10091010  RH  100%=      5-min Rain = 0
KDMS 221255Z 12008KT M01/M01 A2988 RMK A01 T10091010  RH  100%=      5-min Rain = 0
KDMS 221300Z 12007KT M01/M01 A2988 RMK A01 T10081010  RH  100%=      5-min Rain = 0
KDMS 221305Z 13008KT M01/M01 A2988 RMK A01 T10081010  RH  100%=      5-min Rain = 0
KDMS 221310Z 13006KT M01/M01 A2989 RMK A01 T10081010  RH  100%=      5-min Rain = 0
KDMS 221315Z 13005KT M01/M01 A299 RMK A01 T10081010  RH  100%=      5-min Rain = 0
KDMS 221320Z 13007KT M01/M01 A299 RMK A01 T10091010  RH  100%=      5-min Rain = 0
KDMS 221325Z 14007KT M01/M01 A299 RMK A01 T10091011  RH  100%=      5-min Rain = 0
KDMS 221330Z 15005KT M01/M01 A2991 RMK A01 T10091010  RH  100%=      5-min Rain = 0
KDMS 221335Z 15006KT M01/M01 A2991 RMK A01 T10081009  RH  100%=      5-min Rain = 0
KDMS 221340Z 14006KT M01/M01 A2991 RMK A01 T10081009  RH  100%=      5-min Rain = 0
KDMS 221345Z 14007KT M01/M01 A2992 RMK A01 T10071009  RH  100%=      5-min Rain = 0
KDMS 221350Z 15006KT M01/M01 A2992 RMK A01 T10061008  RH  100%=      5-min Rain = 0
KDMS 221355Z 15005KT M01/M01 A2992 RMK A01 T10061007  RH  100%=      5-min Rain = 0
KDMS 221400Z 15006KT M01/M01 A2993 RMK A01 T10061007  RH  100%=      5-min Rain = 0
KDMS 221405Z 14006KT M01/M01 A2993 RMK A01 T10051006  RH  100%=      5-min Rain = 0
KDMS 221410Z 14006KT M00/M01 A2993 RMK A01 T10041006  RH  100%=      5-min Rain = 0
KDMS 221415Z 15008KT M00/M01 A2993 RMK A01 T10041005  RH  100%=      5-min Rain = 0
KDMS 221420Z 14008KT M00/M01 A2993 RMK A01 T10031005  RH  100%=      5-min Rain = 0
KDMS 221425Z 14008KT M00/M00 A2993 RMK A01 T10031004  RH  100%=      5-min Rain = 0
KDMS 221430Z 14009KT M00/M00 A2993 RMK A01 T10031004  RH  100%=      5-min Rain = 0
KDMS 221435Z 15009KT M00/M00 A2994 RMK A01 T10021003  RH  100%=      5-min Rain = 0
KDMS 221440Z 15008KT M00/M00 A2994 RMK A01 T10011003  RH  100%=      5-min Rain = 0
KDMS 221445Z 14007KT M00/M00 A2994 RMK A01 T10011002  RH  100%=      5-min Rain = 0
KDMS 221450Z 15006KT M00/M00 A2994 RMK A01 T10011002  RH  100%=      5-min Rain = 0
KDMS 221455Z 15007KT 00/00 A2994 RMK A01 T00-000-2  RH  100%=      5-min Rain = 0
KDMS 221500Z 14006KT 00/00 A2994 RMK A01 T000100-0  RH  100%=      5-min Rain = 0
KDMS 221505Z 14006KT 00/00 A2995 RMK A01 T000200-0  RH  100%=      5-min Rain = 0
KDMS 221510Z 14006KT 00/00 A2995 RMK A01 T00030001  RH  100%=      5-min Rain = 0
KDMS 221515Z 14006KT 00/00 A2995 RMK A01 T00040002  RH  100%=      5-min Rain = 0
KDMS 221520Z 14005KT 01/00 A2995 RMK A01 T00050003  RH  100%=      5-min Rain = 0
KDMS 221525Z 13006KT 01/01 A2995 RMK A01 T00070005  RH  100%=      5-min Rain = 0
KDMS 221530Z 14006KT 01/01 A2995 RMK A01 T00090007  RH  100%=      5-min Rain = 0
KDMS 221535Z 14007KT 01/01 A2995 RMK A01 T00090007  RH  100%=      5-min Rain = 0
KDMS 221540Z 13006KT 01/01 A2996 RMK A01 T00100008  RH  100%=      5-min Rain = 0
KDMS 221545Z 14006KT 01/01 A2996 RMK A01 T00110009  RH  100%=      5-min Rain = 0
KDMS 221550Z 13006KT 01/01 A2996 RMK A01 T00110009  RH  100%=      5-min Rain = 0
KDMS 221555Z 12006KT 01/01 A2996 RMK A01 T00120010  RH  100%=      5-min Rain = 0
KDMS 221600Z 13007KT 01/01 A2996 RMK A01 T00130011  RH  100%=      5-min Rain = 0
KDMS 221605Z 13007KT 02/01 A2995 RMK A01 T00150013  RH  100%=      5-min Rain = 0
KDMS 221610Z 13008KT 02/01 A2995 RMK A01 T00160014  RH  100%=      5-min Rain = 0
KDMS 221615Z 13009KT 02/01 A2995 RMK A01 T00160014  RH  100%=      5-min Rain = 0
KDMS 221620Z 13008KT 02/02 A2995 RMK A01 T00180016  RH  100%=      5-min Rain = 0
KDMS 221625Z 13008KT 02/02 A2994 RMK A01 T00200017  RH  100%=      5-min Rain = 0
KDMS 221630Z 13010KT 02/02 A2994 RMK A01 T00200017  RH  100%=      5-min Rain = 0
KDMS 221635Z 13010KT 02/02 A2994 RMK A01 T00200018  RH  100%=      5-min Rain = 0
KDMS 221640Z 13009KT 02/02 A2994 RMK A01 T00230021  RH  100%=      5-min Rain = 0
KDMS 221645Z 14010KT 02/02 A2994 RMK A01 T00240022  RH  100%=      5-min Rain = 0
KDMS 221650Z 13009KT 03/02 A2993 RMK A01 T00270024  RH  100%=      5-min Rain = 0
KDMS 221655Z 13011KT 03/02 A2993 RMK A01 T00270024  RH  100%=      5-min Rain = 0
KDMS 221700Z 14010KT 03/03 A2993 RMK A01 T00290026  RH  100%=      5-min Rain = 0
KDMS 221705Z 14011KT 03/03 A2993 RMK A01 T00300028  RH  100%=      5-min Rain = 0
KDMS 221710Z 14009KT 03/03 A2993 RMK A01 T00320029  RH  100%=      5-min Rain = 0
KDMS 221715Z 15009KT 03/03 A2993 RMK A01 T00340031  RH  100%=      5-min Rain = 0
KDMS 221720Z 15010KT 03/03 A2993 RMK A01 T00330031  RH  100%=      5-min Rain = 0
KDMS 221725Z 16009KT 04/03 A2993 RMK A01 T00360031  RH  098%=      5-min Rain = 0
KDMS 221730Z 15009KT 04/03 A2993 RMK A01 T00370029  RH  096%=      5-min Rain = 0
KDMS 221735Z 16009KT 04/03 A2992 RMK A01 T00380029  RH  095%=      5-min Rain = 0
KDMS 221740Z 15011KT 04/03 A2992 RMK A01 T00420031  RH  094%=      5-min Rain = 0
KDMS 221745Z 16011G16KT 05/03 A2992 RMK A01 T00460031  RH  091%=      5-min Rain = 0
KDMS 221750Z 16010KT 05/03 A2992 RMK A01 T00460028  RH  090%=      5-min Rain = 0
KDMS 221755Z 17011KT 05/03 A2992 RMK A01 T00480028  RH  088%=      5-min Rain = 0
KDMS 221800Z 17010KT 05/03 A2992 RMK A01 T00500026  RH  086%=      5-min Rain = 0
KDMS 221805Z 17012KT 05/03 A2992 RMK A01 T00500026  RH  086%=      5-min Rain = 0
KDMS 221810Z 16012KT 05/03 A2991 RMK A01 T00490026  RH  086%=      5-min Rain = 0
KDMS 221815Z 15012KT 05/03 A2991 RMK A01 T00490025  RH  086%=      5-min Rain = 0
KDMS 221820Z 16011KT 05/03 A2991 RMK A01 T00520026  RH  085%=      5-min Rain = 0
KDMS 221825Z 17011KT 05/03 A299 RMK A01 T00530025  RH  084%=      5-min Rain = 0
KDMS 221830Z 18011KT 05/03 A299 RMK A01 T00540025  RH  083%=      5-min Rain = 0
KDMS 221835Z 16011KT 06/03 A299 RMK A01 T00550026  RH  083%=      5-min Rain = 0
KDMS 221840Z 16010KT 05/03 A299 RMK A01 T00540025  RH  083%=      5-min Rain = 0
KDMS 221845Z 16010KT 06/03 A299 RMK A01 T00560026  RH  082%=      5-min Rain = 0
KDMS 221850Z 15010KT 06/03 A2989 RMK A01 T00590025  RH  081%=      5-min Rain = 0
KDMS 221855Z 16009KT 06/03 A2989 RMK A01 T00580025  RH  081%=      5-min Rain = 0
KDMS 221900Z 18009KT 07/03 A2988 RMK A01 T00650028  RH  078%=      5-min Rain = 0
KDMS 221905Z 16010KT 07/03 A2988 RMK A01 T00660027  RH  077%=      5-min Rain = 0
KDMS 221910Z 17011G16KT 07/03 A2987 RMK A01 T00700026  RH  075%=      5-min Rain = 0
KDMS 221915Z 17010G15KT 07/03 A2987 RMK A01 T00710026  RH  074%=      5-min Rain = 0
KDMS 221920Z 17010KT 08/03 A2987 RMK A01 T00750028  RH  073%=      5-min Rain = 0
KDMS 221925Z 18009KT 08/03 A2986 RMK A01 T00760028  RH  073%=      5-min Rain = 0
KDMS 221930Z 16008KT 08/03 A2986 RMK A01 T00780028  RH  072%=      5-min Rain = 0
KDMS 221935Z 18009KT 08/03 A2986 RMK A01 T00790028  RH  071%=      5-min Rain = 0
KDMS 221940Z 18010KT 08/03 A2985 RMK A01 T00820028  RH  070%=      5-min Rain = 0
KDMS 221945Z 17007G13KT 09/03 A2985 RMK A01 T00870030  RH  068%=      5-min Rain = 0
KDMS 221950Z 16009G14KT 09/03 A2984 RMK A01 T00910030  RH  067%=      5-min Rain = 0
KDMS 221955Z 16008KT 09/03 A2984 RMK A01 T00920029  RH  066%=      5-min Rain = 0
KDMS 222000Z 16008KT 09/03 A2983 RMK A01 T00940028  RH  064%=      5-min Rain = 0
KDMS 222005Z 16009KT 09/03 A2983 RMK A01 T00940028  RH  064%=      5-min Rain = 0
KDMS 222010Z 16009KT 10/03 A2983 RMK A01 T00980026  RH  062%=      5-min Rain = 0
KDMS 222015Z 17010KT 10/03 A2982 RMK A01 T01010028  RH  062%=      5-min Rain = 0
KDMS 222020Z 18008KT 10/03 A2982 RMK A01 T01000029  RH  062%=      5-min Rain = 0
KDMS 222025Z 15009KT 10/03 A2982 RMK A01 T01030027  RH  060%=      5-min Rain = 0
KDMS 222030Z 16010KT 10/03 A2981 RMK A01 T01040030  RH  061%=      5-min Rain = 0
KDMS 222035Z 17010G15KT 11/03 A2981 RMK A01 T01050028  RH  060%=      5-min Rain = 0
KDMS 222040Z 16009KT 11/03 A2981 RMK A01 T01090029  RH  059%=      5-min Rain = 0
KDMS 222045Z 16010KT 11/03 A298 RMK A01 T01090026  RH  058%=      5-min Rain = 0
KDMS 222050Z 16009KT 11/02 A298 RMK A01 T01120024  RH  056%=      5-min Rain = 0
KDMS 222055Z 15010KT 11/03 A298 RMK A01 T01120025  RH  056%=      5-min Rain = 0
KDMS 222100Z 16010KT 11/03 A298 RMK A01 T01120026  RH  056%=      5-min Rain = 0
KDMS 222105Z 16010KT 12/02 A298 RMK A01 T01150024  RH  054%=      5-min Rain = 0
KDMS 222110Z 16010KT 11/02 A298 RMK A01 T01140021  RH  053%=      5-min Rain = 0
KDMS 222115Z 16011KT 12/02 A2979 RMK A01 T01150022  RH  054%=      5-min Rain = 0
KDMS 222120Z 15010KT 12/02 A2979 RMK A01 T01150020  RH  053%=      5-min Rain = 0
KDMS 222125Z 15009KT 12/02 A2979 RMK A01 T01180020  RH  052%=      5-min Rain = 0
KDMS 222130Z 15010KT 12/02 A2979 RMK A01 T01180022  RH  053%=      5-min Rain = 0
KDMS 222135Z 15011KT 12/02 A2979 RMK A01 T01180019  RH  052%=      5-min Rain = 0
KDMS 222140Z 16010KT 12/02 A2979 RMK A01 T01190018  RH  051%=      5-min Rain = 0
KDMS 222145Z 15009KT 12/02 A2979 RMK A01 T01200017  RH  050%=      5-min Rain = 0
KDMS 222150Z 16010KT 12/02 A2979 RMK A01 T01220018  RH  050%=      5-min Rain = 0
KDMS 222155Z 15009KT 12/02 A2979 RMK A01 T01220022  RH  051%=      5-min Rain = 0
KDMS 222200Z 15011G16KT 12/02 A2979 RMK A01 T01220020  RH  051%=      5-min Rain = 0
KDMS 222205Z 14011KT 12/02 A2978 RMK A01 T01200017  RH  050%=      5-min Rain = 0
KDMS 222210Z 14011G16KT 12/01 A2978 RMK A01 T01240014  RH  048%=      5-min Rain = 0
KDMS 222215Z 14011KT 12/01 A2978 RMK A01 T01220013  RH  048%=      5-min Rain = 0
KDMS 222220Z 16011KT 13/01 A2978 RMK A01 T01250012  RH  047%=      5-min Rain = 0
KDMS 222225Z 15012KT 13/01 A2978 RMK A01 T01250012  RH  047%=      5-min Rain = 0
KDMS 222230Z 15012KT 13/01 A2978 RMK A01 T01260013  RH  047%=      5-min Rain = 0
KDMS 222235Z 15011G16KT 13/02 A2978 RMK A01 T01260015  RH  047%=      5-min Rain = 0
KDMS 222240Z 15011KT 13/02 A2978 RMK A01 T01270015  RH  047%=      5-min Rain = 0
KDMS 222245Z 16012KT 13/02 A2978 RMK A01 T01270015  RH  047%=      5-min Rain = 0
KDMS 222250Z 15013G18KT 13/02 A2978 RMK A01 T01260015  RH  047%=      5-min Rain = 0
KDMS 222255Z 15012KT 13/02 A2978 RMK A01 T01270017  RH  048%=      5-min Rain = 0
KDMS 222300Z 13012G17KT 13/02 A2978 RMK A01 T01250016  RH  048%=      5-min Rain = 0
KDMS 222305Z 15013KT 13/02 A2978 RMK A01 T01260016  RH  048%=      5-min Rain = 0
KDMS 222310Z 15013KT 13/02 A2978 RMK A01 T01260016  RH  048%=      5-min Rain = 0
KDMS 222315Z 15012KT 13/02 A2977 RMK A01 T01250016  RH  048%=      5-min Rain = 0
KDMS 222320Z 15013G18KT 13/02 A2977 RMK A01 T01250015  RH  048%=      5-min Rain = 0
KDMS 222325Z 14014KT 12/02 A2976 RMK A01 T01240015  RH  048%=      5-min Rain = 0
KDMS 222330Z 14014KT 12/02 A2976 RMK A01 T01240015  RH  048%=      5-min Rain = 0
KDMS 222335Z 14013KT 12/01 A2976 RMK A01 T01240014  RH  048%=      5-min Rain = 0
KDMS 222340Z 14013KT 12/01 A2976 RMK A01 T01230013  RH  048%=      5-min Rain = 0
KDMS 222345Z 13013KT 12/01 A2976 RMK A01 T01230013  RH  048%=      5-min Rain = 0
KDMS 222350Z 13014KT 12/01 A2976 RMK A01 T01220013  RH  048%=      5-min Rain = 0
KDMS 222355Z 14013KT 12/01 A2976 RMK A01 T01210012  RH  048%=      5-min Rain = 0
KDMS 230000Z 14013KT 12/01 A2976 RMK A01 T01190012  RH  048%=      5-min Rain = 0
KDMS 230005Z 14014KT 12/01 A2976 RMK A01 T01180011  RH  049%=      5-min Rain = 0
KDMS 230010Z 13014KT 12/01 A2976 RMK A01 T01160011  RH  049%=      5-min Rain = 0
KDMS 230015Z 14014G19KT 11/01 A2976 RMK A01 T01130010  RH  050%=      5-min Rain = 0
KDMS 230020Z 13013KT 11/01 A2976 RMK A01 T01110012  RH  051%=      5-min Rain = 0
KDMS 230025Z 13014KT 11/01 A2976 RMK A01 T01070014  RH  054%=      5-min Rain = 0
KDMS 230030Z 13013G18KT 10/02 A2976 RMK A01 T01030021  RH  058%=      5-min Rain = 0
KDMS 230035Z 13013KT 10/02 A2976 RMK A01 T00980022  RH  060%=      5-min Rain = 0
KDMS 230040Z 13014G19KT 10/02 A2976 RMK A01 T00960024  RH  062%=      5-min Rain = 0
KDMS 230045Z 12015G20KT 09/03 A2976 RMK A01 T00930026  RH  064%=      5-min Rain = 0
KDMS 230050Z 12019G24KT 09/03 A2976 RMK A01 T00880029  RH  068%=      5-min Rain = 0
KDMS 230055Z 12016G21KT 08/03 A2976 RMK A01 T00830029  RH  070%=      5-min Rain = 0
KDMS 230100Z 12015KT 08/03 A2976 RMK A01 T00790029  RH  072%=      5-min Rain = 0
KDMS 230105Z 12015KT 08/03 A2976 RMK A01 T00750029  RH  074%=      5-min Rain = 0
KDMS 230110Z 12015KT 07/03 A2976 RMK A01 T00730029  RH  075%=      5-min Rain = 0
KDMS 230115Z 12015KT 07/03 A2976 RMK A01 T00700029  RH  076%=      5-min Rain = 0
KDMS 230120Z 12015KT 07/03 A2976 RMK A01 T00670028  RH  077%=      5-min Rain = 0
KDMS 230125Z 11014KT 07/03 A2975 RMK A01 T00650028  RH  079%=      5-min Rain = 0
KDMS 230130Z 12014G19KT 06/03 A2975 RMK A01 T00620028  RH  080%=      5-min Rain = 0
KDMS 230135Z 12015KT 06/03 A2975 RMK A01 T00600028  RH  081%=      5-min Rain = 0
KDMS 230140Z 12015G20KT 06/03 A2975 RMK A01 T00570028  RH  083%=      5-min Rain = 0
KDMS 230145Z 12014KT 06/03 A2975 RMK A01 T00550027  RH  084%=      5-min Rain = 0
KDMS 230150Z 12014KT 05/03 A2975 RMK A01 T00530026  RH  084%=      5-min Rain = 0
KDMS 230155Z 11014KT 05/03 A2974 RMK A01 T00510026  RH  085%=      5-min Rain = 0
KDMS 230200Z 11013KT 05/03 A2974 RMK A01 T00490025  RH  086%=      5-min Rain = 0
KDMS 230205Z 11013KT 05/02 A2974 RMK A01 T00460024  RH  087%=      5-min Rain = 0
KDMS 230210Z 11013KT 04/02 A2974 RMK A01 T00430022  RH  088%=      5-min Rain = 0
KDMS 230215Z 10013KT 04/02 A2974 RMK A01 T00410023  RH  089%=      5-min Rain = 0
KDMS 230220Z 10013KT 04/02 A2974 RMK A01 T00390022  RH  090%=      5-min Rain = 0
KDMS 230225Z 10013KT 04/02 A2974 RMK A01 T00370021  RH  091%=      5-min Rain = 0
KDMS 230230Z 11013G18KT 04/02 A2974 RMK A01 T00360022  RH  092%=      5-min Rain = 0
KDMS 230235Z 10014KT 04/02 A2974 RMK A01 T00370023  RH  092%=      5-min Rain = 0
KDMS 230240Z 10014KT 04/02 A2973 RMK A01 T00380024  RH  092%=      5-min Rain = 0
KDMS 230245Z 11015G20KT 04/03 A2973 RMK A01 T00380025  RH  093%=      5-min Rain = 0
KDMS 230250Z 11016G24KT 04/03 A2974 RMK A01 T00380026  RH  093%=      5-min Rain = 0
KDMS 230255Z 11016KT 04/03 A2974 RMK A01 T00370026  RH  094%=      5-min Rain = 0
KDMS 230300Z 11015G21KT 04/03 A2973 RMK A01 T00360025  RH  094%=      5-min Rain = 0
KDMS 230305Z 11019KT 04/03 A2973 RMK A01 T00360025  RH  094%=      5-min Rain = 0
KDMS 230310Z 11018KT 04/03 A2974 RMK A01 T00350025  RH  095%=      5-min Rain = 0
KDMS 230315Z 12019G24KT 03/02 A2974 RMK A01 T00340024  RH  095%=      5-min Rain = 0
KDMS 230320Z 11017G24KT 04/03 A2974 RMK A01 T00350025  RH  095%=      5-min Rain = 0
KDMS 230325Z 12019G24KT 04/03 A2975 RMK A01 T00350025  RH  095%=      5-min Rain = 0
KDMS 230330Z 12022KT 04/03 A2974 RMK A01 T00350025  RH  094%=      5-min Rain = 0
KDMS 230335Z 13021G26KT 04/03 A2975 RMK A01 T00350026  RH  095%=      5-min Rain = 0
KDMS 230340Z 12020G26KT 04/03 A2974 RMK A01 T00350026  RH  095%=      5-min Rain = 0
KDMS 230345Z 12017G22KT 03/03 A2974 RMK A01 T00340025  RH  095%=      5-min Rain = 0
KDMS 230350Z 13019G25KT 03/03 A2976 RMK A01 T00340025  RH  095%=      5-min Rain = 0
KDMS 230355Z 13021KT 03/03 A2976 RMK A01 T00340025  RH  095%=      5-min Rain = 0
KDMS 230400Z 12018G23KT 03/02 A2975 RMK A01 T00340024  RH  095%=      5-min Rain = 0
KDMS 230405Z 13018G24KT 03/02 A2975 RMK A01 T00340024  RH  095%=      5-min Rain = 0
KDMS 230410Z 13019G25KT 04/03 A2976 RMK A01 T00350025  RH  095%=      5-min Rain = 0
KDMS 230415Z 13019G28KT 04/03 A2976 RMK A01 T00350025  RH  095%=      5-min Rain = 0
KDMS 230420Z 12023G35KT 04/03 A2973 RMK A01 T00360028  RH  096%=      5-min Rain = 0.01
KDMS 230425Z 12023G31KT 04/03 A2973 RMK A01 T00350029  RH  098%=      5-min Rain = 0.01
KDMS 230430Z 12022G27KT 04/03 A2972 RMK A01 T00350031  RH  099%=      5-min Rain = 0.01
KDMS 230435Z 12021G27KT 04/03 A2972 RMK A01 T00360032  RH  099%=      5-min Rain = 0
KDMS 230440Z 11019G24KT 04/03 A2971 RMK A01 T00360032  RH  099%=      5-min Rain = 0.01
KDMS 230445Z 12019G25KT 04/03 A2971 RMK A01 T00370033  RH  100%=      5-min Rain = 0
KDMS 230450Z 12022KT 04/03 A2971 RMK A01 T00370034  RH  100%=      5-min Rain = 0
KDMS 230455Z 12021G26KT 04/03 A2971 RMK A01 T00370034  RH  100%=      5-min Rain = 0
KDMS 230500Z 12019G25KT 04/03 A2971 RMK A01 T00370034  RH  100%=      5-min Rain = 0
KDMS 230505Z 12018KT 04/03 A2971 RMK A01 T00370034  RH  100%=      5-min Rain = 0
KDMS 230510Z 12018KT 04/04 A2972 RMK A01 T00370035  RH  100%=      5-min Rain = 0
KDMS 230515Z 12016G21KT 04/04 A2972 RMK A01 T00370035  RH  100%=      5-min Rain = 0
KDMS 230520Z 12015G21KT 04/04 A2972 RMK A01 T00380035  RH  100%=      5-min Rain = 0
KDMS 230525Z 12016G21KT 04/04 A2972 RMK A01 T00380035  RH  100%=      5-min Rain = 0
KDMS 230530Z 12015KT 04/04 A2971 RMK A01 T00380036  RH  100%=      5-min Rain = 0
KDMS 230535Z 12015KT 04/04 A297 RMK A01 T00390036  RH  100%=      5-min Rain = 0
KDMS 230540Z 11012KT 04/04 A297 RMK A01 T00390037  RH  100%=      5-min Rain = 0
KDMS 230545Z 11012KT 04/04 A297 RMK A01 T00400037  RH  100%=      5-min Rain = 0
KDMS 230550Z 11011KT 04/04 A2969 RMK A01 T00400037  RH  100%=      5-min Rain = 0
KDMS 230555Z 11012G17KT 04/04 A297 RMK A01 T00400037  RH  100%=      5-min Rain = 0

Page generated in 0.0088 seconds.